Time;durP1;ratioP1;P1;durP2;ratioP2;P2;SDS_P1;SDS_P2;PMS_P1;PMS_P2;Temp;Humidity;BMP_temperature;BMP_pressure;BME280_temperature;BME280_humidity;BME280_pressure;Samples;Min_cycle;Max_cycle;Signal;HPM_P1;HPM_P2
2022/11/02 00:00:45;;;;;;;5.00;0.35;;;13.20;99.90;;;;;;5088194;28;20122;-55
2022/11/02 00:03:11;;;;;;;6.03;0.40;;;13.10;99.90;;;;;;5085536;28;20807;-56
2022/11/02 00:05:36;;;;;;;6.63;0.60;;;13.00;99.90;;;;;;5088881;28;20150;-56
2022/11/02 00:08:02;;;;;;;7.57;0.73;;;13.00;99.90;;;;;;5093393;28;20302;-57
2022/11/02 00:10:28;;;;;;;9.70;1.05;;;13.00;99.90;;;;;;5078361;28;20487;-56
2022/11/02 00:12:54;;;;;;;;;;;12.90;99.90;;;;;;5076186;28;20047;-57
2022/11/02 00:15:21;;;;;;;11.82;1.55;;;12.90;99.90;;;;;;5072204;28;20377;-56
2022/11/02 00:17:49;;;;;;;15.98;3.25;;;12.90;99.90;;;;;;5089762;28;20043;-56
2022/11/02 00:20:17;;;;;;;14.13;2.70;;;12.90;99.90;;;;;;5090508;28;20051;-56
2022/11/02 00:22:44;;;;;;;8.93;1.55;;;12.90;99.90;;;;;;5090241;28;20040;-55
2022/11/02 00:25:13;;;;;;;8.55;2.13;;;12.90;99.90;;;;;;5089897;28;20040;-57
2022/11/02 00:27:40;;;;;;;8.75;1.65;;;12.90;99.90;;;;;;5090159;28;20300;-56
2022/11/02 00:30:07;;;;;;;10.13;1.30;;;12.90;99.90;;;;;;5090140;28;20043;-56
2022/11/02 00:32:33;;;;;;;13.63;1.70;;;12.90;99.90;;;;;;5090597;28;20040;-57
2022/11/02 00:34:58;;;;;;;8.57;1.10;;;12.90;99.90;;;;;;5107652;28;20051;-55
2022/11/02 00:37:24;;;;;;;14.93;1.53;;;12.90;99.90;;;;;;5093233;28;20408;-54
2022/11/02 00:39:49;;;;;;;13.70;2.72;;;12.90;99.90;;;;;;5092667;28;20409;-56
2022/11/02 00:42:15;;;;;;;8.63;1.03;;;12.90;99.90;;;;;;5089855;28;20040;-57
2022/11/02 00:44:40;;;;;;;8.23;1.00;;;12.90;99.90;;;;;;5090204;28;20282;-55
2022/11/02 00:47:06;;;;;;;15.57;1.73;;;12.90;99.90;;;;;;5090742;28;20042;-55
2022/11/02 00:49:32;;;;;;;11.90;2.20;;;12.90;99.90;;;;;;5088801;28;20046;-55
2022/11/02 00:51:57;;;;;;;14.23;2.47;;;12.90;99.90;;;;;;5103542;28;20043;-55
2022/11/02 00:54:23;;;;;;;11.82;1.60;;;13.00;99.90;;;;;;5109092;28;20114;-55
2022/11/02 00:56:49;;;;;;;7.07;1.17;;;13.00;99.90;;;;;;5100543;28;20504;-56
2022/11/02 00:59:14;;;;;;;10.38;1.13;;;13.00;99.90;;;;;;5094252;28;20035;-57
2022/11/02 01:01:40;;;;;;;15.53;3.10;;;13.10;99.90;;;;;;5107669;28;20236;-55
2022/11/02 01:04:05;;;;;;;11.80;1.58;;;13.10;99.90;;;;;;5108006;28;20312;-54
2022/11/02 01:06:31;;;;;;;9.07;0.88;;;13.20;99.90;;;;;;5103591;28;20102;-56
2022/11/02 01:08:57;;;;;;;7.80;1.60;;;13.20;99.90;;;;;;5091073;28;20080;-56
2022/11/02 01:11:23;;;;;;;16.90;1.57;;;13.20;99.90;;;;;;5092730;28;20035;-55
2022/11/02 01:13:50;;;;;;;9.32;1.13;;;13.30;99.90;;;;;;5108112;28;20047;-53
2022/11/02 01:16:16;;;;;;;13.02;1.75;;;13.30;99.90;;;;;;5107172;28;20105;-58
2022/11/02 01:18:42;;;;;;;10.85;2.00;;;13.30;99.90;;;;;;5096976;28;20039;-57
2022/11/02 01:21:08;;;;;;;11.75;1.55;;;13.20;99.90;;;;;;5110026;28;20504;-56
2022/11/02 01:23:35;;;;;;;10.05;1.67;;;13.20;99.90;;;;;;5090507;28;20040;-57
2022/11/02 01:26:06;;;;;;;14.60;2.05;;;13.20;99.90;;;;;;5093002;28;20032;-56
2022/11/02 01:28:32;;;;;;;12.43;2.25;;;13.20;99.90;;;;;;5095264;28;20427;-57
2022/11/02 01:30:58;;;;;;;7.57;1.10;;;13.30;99.90;;;;;;5093384;28;20123;-57
2022/11/02 01:33:25;;;;;;;6.88;1.25;;;13.30;99.90;;;;;;5107697;28;20153;-56
2022/11/02 01:35:52;;;;;;;9.20;1.35;;;13.20;99.90;;;;;;5114129;28;20054;-57
2022/11/02 01:38:17;;;;;;;;;;;13.30;99.90;;;;;;5099438;28;20497;-57
2022/11/02 01:40:43;;;;;;;11.00;1.08;;;13.30;99.90;;;;;;5108141;28;19916;-55
2022/11/02 01:43:33;;;;;;;10.82;1.80;;;13.30;99.90;;;;;;5102284;28;20508;-55
2022/11/02 01:46:14;;;;;;;13.35;2.08;;;13.20;99.90;;;;;;5073054;28;20045;-57
2022/11/02 01:48:47;;;;;;;9.10;1.35;;;13.30;99.90;;;;;;5105975;28;20031;-58
2022/11/02 01:51:24;;;;;;;14.43;2.85;;;13.30;99.90;;;;;;5111655;28;20036;-58
2022/11/02 01:53:51;;;;;;;;;;;13.30;99.90;;;;;;5100020;28;20036;-57
2022/11/02 01:56:20;;;;;;;10.50;1.80;;;13.20;99.90;;;;;;5093055;28;19916;-57
2022/11/02 01:58:52;;;;;;;16.15;1.42;;;13.20;99.90;;;;;;5093648;28;20770;-58
2022/11/02 02:01:17;;;;;;;12.98;1.17;;;13.20;99.90;;;;;;5092722;28;20052;-57
2022/11/02 02:03:44;;;;;;;13.73;1.13;;;13.20;99.90;;;;;;5100210;28;20048;-58
2022/11/02 02:06:12;;;;;;;13.45;1.27;;;13.20;99.90;;;;;;5109672;28;20282;-55
2022/11/02 02:08:42;;;;;;;9.23;1.20;;;13.20;99.90;;;;;;5092503;28;20028;-56
2022/11/02 02:11:26;;;;;;;13.75;1.67;;;13.20;99.90;;;;;;5092695;28;20448;-57
2022/11/02 02:14:03;;;;;;;13.35;2.03;;;13.20;99.90;;;;;;5103413;28;20444;-59
2022/11/02 02:16:43;;;;;;;7.85;1.73;;;13.20;99.90;;;;;;5092916;28;20048;-58
2022/11/02 02:19:32;;;;;;;9.35;1.33;;;13.20;99.90;;;;;;5096269;28;20044;-58
2022/11/02 02:22:26;;;;;;;7.50;1.08;;;13.20;99.90;;;;;;5072158;28;20082;-58
2022/11/02 02:25:21;;;;;;;6.47;0.60;;;13.20;99.90;;;;;;5082213;28;20054;-58
2022/11/02 02:28:14;;;;;;;8.38;1.10;;;13.20;99.90;;;;;;5092365;28;20508;-57
2022/11/02 02:30:46;;;;;;;9.77;1.48;;;13.30;99.90;;;;;;5092027;28;20497;-56
2022/11/02 02:33:36;;;;;;;8.20;1.15;;;13.30;99.90;;;;;;5091537;28;20052;-54
2022/11/02 02:36:24;;;;;;;12.45;1.92;;;13.30;99.90;;;;;;5086806;28;20429;-56
2022/11/02 02:39:04;;;;;;;6.40;0.90;;;13.20;99.90;;;;;;5050458;28;20040;-57
2022/11/02 02:41:37;;;;;;;9.50;1.35;;;13.20;99.90;;;;;;5071340;28;20087;-55
2022/11/02 02:44:07;;;;;;;14.68;1.35;;;13.10;99.90;;;;;;5106854;28;20039;-57
2022/11/02 02:46:37;;;;;;;6.72;1.10;;;13.10;99.90;;;;;;5091636;28;20504;-58
2022/11/02 02:49:06;;;;;;;10.68;0.85;;;13.10;99.90;;;;;;5091796;28;20036;-53
2022/11/02 02:51:34;;;;;;;8.27;1.10;;;13.00;99.90;;;;;;5088882;28;20047;-56
2022/11/02 02:54:11;;;;;;;13.23;1.90;;;13.00;99.90;;;;;;5091309;28;20036;-57
2022/11/02 02:56:51;;;;;;;7.43;1.02;;;12.90;99.90;;;;;;5111199;28;20052;-56
2022/11/02 02:59:21;;;;;;;5.47;0.82;;;12.90;99.90;;;;;;5110275;28;20169;-56
2022/11/02 03:01:47;;;;;;;6.82;0.63;;;12.80;99.90;;;;;;5107869;28;20349;-53
2022/11/02 03:04:12;;;;;;;;;;;12.80;99.90;;;;;;5112516;28;20040;-56
2022/11/02 03:06:45;;;;;;;5.30;0.85;;;12.80;99.90;;;;;;5093813;28;20025;-56
2022/11/02 03:09:33;;;;;;;5.07;0.40;;;12.70;99.90;;;;;;5096494;28;20035;-56
2022/11/02 03:12:01;;;;;;;6.15;0.60;;;12.70;99.90;;;;;;5093321;28;20082;-55
2022/11/02 03:14:39;;;;;;;4.70;0.80;;;12.70;99.90;;;;;;5091066;28;20055;-56
2022/11/02 03:17:19;;;;;;;8.23;0.65;;;12.60;99.90;;;;;;5108621;28;20035;-57
2022/11/02 03:19:54;;;;;;;6.50;0.85;;;12.50;99.90;;;;;;5100975;28;20400;-55
2022/11/02 03:22:37;;;;;;;4.95;0.40;;;12.50;99.90;;;;;;5108010;28;20450;-55
2022/11/02 03:25:15;;;;;;;5.03;0.73;;;12.40;99.90;;;;;;5111211;28;20035;-55
2022/11/02 03:28:00;;;;;;;4.20;0.80;;;12.30;99.90;;;;;;5090877;28;20539;-56
2022/11/02 03:30:29;;;;;;;7.03;0.82;;;12.20;99.90;;;;;;5100238;28;20568;-56
2022/11/02 03:33:08;;;;;;;6.68;0.77;;;12.20;99.90;;;;;;5083134;28;20043;-54
2022/11/02 03:35:41;;;;;;;2.55;0.20;;;12.10;99.90;;;;;;5090987;28;20062;-56
2022/11/02 03:38:16;;;;;;;2.80;0.20;;;12.10;99.90;;;;;;5074881;28;20043;-55
2022/11/02 03:40:45;;;;;;;2.78;0.40;;;12.00;99.90;;;;;;5090954;28;20081;-55
2022/11/02 03:43:13;;;;;;;3.40;0.50;;;12.00;99.90;;;;;;5073808;28;20480;-57
2022/11/02 03:45:43;;;;;;;4.18;0.43;;;11.90;99.90;;;;;;5090913;28;20047;-56
2022/11/02 03:48:11;;;;;;;4.55;0.50;;;11.90;99.90;;;;;;5107174;28;20044;-53
2022/11/02 03:50:42;;;;;;;2.67;0.40;;;11.80;99.90;;;;;;5090794;28;20124;-55
2022/11/02 03:53:23;;;;;;;1.92;0.47;;;11.80;99.90;;;;;;5107484;28;20047;-56
2022/11/02 03:55:54;;;;;;;5.45;0.75;;;11.80;99.90;;;;;;5109439;28;20273;-55
2022/11/02 03:58:20;;;;;;;4.50;0.40;;;11.70;99.90;;;;;;5106848;28;20028;-55
2022/11/02 04:00:56;;;;;;;12.13;0.98;;;11.70;99.90;;;;;;5094341;28;20028;-57
2022/11/02 04:03:23;;;;;;;7.63;0.75;;;11.70;99.90;;;;;;5092835;28;20089;-58
2022/11/02 04:05:48;;;;;;;5.72;0.88;;;11.70;99.90;;;;;;5091528;28;20443;-56
2022/11/02 04:08:21;;;;;;;5.93;1.37;;;11.70;99.90;;;;;;5103060;28;20042;-57
2022/11/02 04:16:18;;;;;;;5.38;0.47;;;11.60;99.90;;;;;;5089225;28;20501;-56
2022/11/02 04:21:29;;;;;;;6.93;0.70;;;11.60;99.90;;;;;;5089999;28;19915;-57
2022/11/02 04:26:39;;;;;;;6.57;0.85;;;11.50;99.90;;;;;;5090088;28;20416;-56
2022/11/02 04:29:04;;;;;;;5.50;0.53;;;11.50;99.90;;;;;;5090463;28;20032;-56
2022/11/02 04:31:30;;;;;;;5.40;0.73;;;11.60;99.90;;;;;;5090228;28;20072;-57
2022/11/02 04:33:58;;;;;;;6.03;0.97;;;11.50;99.90;;;;;;5089728;28;20048;-58
2022/11/02 04:36:25;;;;;;;6.60;0.57;;;11.50;99.90;;;;;;5090276;28;20052;-58
2022/11/02 04:38:51;;;;;;;9.82;1.02;;;11.50;99.90;;;;;;5102043;28;20131;-57
2022/11/02 04:44:03;;;;;;;2.25;0.63;;;11.50;99.90;;;;;;5101604;28;20040;-58
2022/11/02 04:46:31;;;;;;;4.05;0.57;;;11.50;99.90;;;;;;5099148;28;20416;-57
2022/11/02 04:48:57;;;;;;;6.68;0.73;;;11.50;99.90;;;;;;5096823;28;20771;-57
2022/11/02 04:51:24;;;;;;;8.95;0.60;;;11.50;99.90;;;;;;5090042;28;20043;-57
2022/11/02 04:53:51;;;;;;;6.88;1.05;;;11.50;99.90;;;;;;5092821;28;20047;-58
2022/11/02 04:56:17;;;;;;;7.53;0.52;;;11.50;99.90;;;;;;5090170;28;20052;-58
2022/11/02 04:58:42;;;;;;;8.33;0.83;;;11.50;99.90;;;;;;5094371;28;20040;-55
2022/11/02 05:01:12;;;;;;;7.90;1.27;;;11.50;99.90;;;;;;5096771;28;20062;-55
2022/11/02 05:03:38;;;;;;;4.30;0.50;;;11.50;99.90;;;;;;5109497;28;20305;-54
2022/11/02 05:06:04;;;;;;;8.95;1.08;;;11.50;99.90;;;;;;5100745;28;20028;-55
2022/11/02 05:08:30;;;;;;;7.53;1.00;;;11.40;99.90;;;;;;5103662;28;20032;-58
2022/11/02 05:10:56;;;;;;;9.93;0.73;;;11.40;99.90;;;;;;5112739;28;20036;-56
2022/11/02 05:13:23;;;;;;;12.57;1.60;;;11.40;99.90;;;;;;5112878;28;20039;-55
2022/11/02 05:15:49;;;;;;;4.80;0.98;;;11.40;99.90;;;;;;5094569;28;20032;-54
2022/11/02 05:18:15;;;;;;;3.35;0.52;;;11.40;99.90;;;;;;5093578;28;20455;-55
2022/11/02 05:20:40;;;;;;;8.73;0.90;;;11.50;99.90;;;;;;5104080;28;20123;-56
2022/11/02 05:23:06;;;;;;;4.40;0.70;;;11.50;99.90;;;;;;5113190;28;20393;-57
2022/11/02 05:25:32;;;;;;;10.63;1.70;;;11.50;99.90;;;;;;5099724;28;20048;-53
2022/11/02 05:27:58;;;;;;;6.32;1.45;;;11.50;99.90;;;;;;5103194;28;20277;-54
2022/11/02 05:30:23;;;;;;;10.68;1.20;;;11.50;99.90;;;;;;5101422;28;20047;-56
2022/11/02 05:32:49;;;;;;;5.00;0.93;;;11.60;99.90;;;;;;5096323;28;20047;-56
2022/11/02 05:35:15;;;;;;;8.30;0.80;;;11.50;99.90;;;;;;5103966;28;20286;-56
2022/11/02 05:37:40;;;;;;;9.18;0.85;;;11.60;99.90;;;;;;5075094;28;20185;-56
2022/11/02 05:40:07;;;;;;;10.63;1.38;;;11.60;99.90;;;;;;5106802;28;20085;-56
2022/11/02 05:42:33;;;;;;;7.65;1.65;;;11.60;99.90;;;;;;5109370;28;20132;-55
2022/11/02 05:44:59;;;;;;;9.05;1.25;;;11.60;99.90;;;;;;5112594;28;20081;-54
2022/11/02 05:47:24;;;;;;;10.00;2.00;;;11.60;99.90;;;;;;5097565;28;20116;-53
2022/11/02 05:49:50;;;;;;;9.23;1.33;;;11.60;99.90;;;;;;5093132;28;20039;-56
2022/11/02 05:52:15;;;;;;;12.73;1.80;;;11.60;99.90;;;;;;5105903;28;20039;-57
2022/11/02 05:54:41;;;;;;;10.27;1.95;;;11.60;99.90;;;;;;5101751;28;20111;-56
2022/11/02 05:57:06;;;;;;;13.80;1.80;;;11.60;99.90;;;;;;5103495;28;20044;-56
2022/11/02 05:59:32;;;;;;;13.23;2.27;;;11.60;99.90;;;;;;5095449;28;20286;-56
2022/11/02 06:01:57;;;;;;;13.03;2.37;;;11.60;99.90;;;;;;5104268;28;20499;-53
2022/11/02 06:04:23;;;;;;;15.50;1.67;;;11.60;99.90;;;;;;5094176;28;20519;-56
2022/11/02 06:06:48;;;;;;;7.70;1.07;;;11.60;99.90;;;;;;5110865;28;20027;-53
2022/11/02 06:09:14;;;;;;;9.83;1.43;;;11.60;99.90;;;;;;5092831;28;20439;-56
2022/11/02 06:11:39;;;;;;;9.50;1.53;;;11.70;99.90;;;;;;5093905;28;20622;-58
2022/11/02 06:14:05;;;;;;;12.53;1.90;;;11.70;99.90;;;;;;5104294;28;20504;-53
2022/11/02 06:16:31;;;;;;;11.67;1.33;;;11.70;99.90;;;;;;5091350;28;20413;-57
2022/11/02 06:18:56;;;;;;;7.03;1.58;;;11.70;99.90;;;;;;5092598;28;20497;-57
2022/11/02 06:21:22;;;;;;;8.63;1.20;;;11.80;99.90;;;;;;5092639;28;20433;-57
2022/11/02 06:23:48;;;;;;;14.30;1.73;;;11.70;99.90;;;;;;5091787;28;20463;-57
2022/11/02 06:26:14;;;;;;;10.25;1.90;;;11.70;99.90;;;;;;5092766;28;20036;-57
2022/11/02 06:28:39;;;;;;;11.45;2.55;;;11.70;99.90;;;;;;5091712;28;20358;-57
2022/11/02 06:31:05;;;;;;;10.30;1.63;;;11.60;99.90;;;;;;5092419;28;20028;-56
2022/11/02 06:33:30;;;;;;;11.35;1.92;;;11.60;99.90;;;;;;5091633;28;20092;-57
2022/11/02 06:35:56;;;;;;;18.00;2.40;;;11.60;99.90;;;;;;5092348;28;20553;-55
2022/11/02 06:38:22;;;;;;;15.63;1.97;;;11.60;99.90;;;;;;5103064;28;20118;-57
2022/11/02 06:40:59;;;;;;;11.02;1.88;;;11.60;99.90;;;;;;5106332;28;20117;-56
2022/11/02 06:43:25;;;;;;;7.53;2.10;;;11.50;99.90;;;;;;5100630;28;20047;-57
2022/11/02 06:45:54;;;;;;;16.13;1.60;;;11.50;99.90;;;;;;5110764;28;20031;-58
2022/11/02 06:48:20;;;;;;;10.73;1.83;;;11.50;99.90;;;;;;5098000;28;20043;-57
2022/11/02 06:50:45;;;;;;;13.50;2.00;;;11.50;99.90;;;;;;5095094;28;20040;-56
2022/11/02 06:53:11;;;;;;;14.13;2.30;;;11.50;99.90;;;;;;5091382;28;20035;-58
2022/11/02 06:55:36;;;;;;;16.47;2.80;;;11.40;99.90;;;;;;5091459;28;20123;-56
2022/11/02 06:58:02;;;;;;;19.83;2.13;;;11.50;99.90;;;;;;5091290;28;20274;-57
2022/11/02 07:00:28;;;;;;;23.00;2.73;;;11.50;99.90;;;;;;5091440;28;20036;-56
2022/11/02 07:03:04;;;;;;;;;;;11.50;99.90;;;;;;5092672;28;20082;-58
2022/11/02 07:05:31;;;;;;;13.73;2.10;;;11.50;99.90;;;;;;5093553;28;19916;-57
2022/11/02 07:07:56;;;;;;;7.97;1.48;;;11.50;99.90;;;;;;5091504;28;20043;-57
2022/11/02 07:10:22;;;;;;;17.33;2.17;;;11.50;99.90;;;;;;5090823;28;20040;-57
2022/11/02 07:12:52;;;;;;;11.00;1.63;;;11.50;99.90;;;;;;5091532;28;20330;-57
2022/11/02 07:15:18;;;;;;;14.60;1.55;;;11.50;99.90;;;;;;5094816;28;20043;-58
2022/11/02 07:17:44;;;;;;;11.13;1.23;;;11.60;99.90;;;;;;5092974;28;20028;-57
2022/11/02 07:20:09;;;;;;;7.87;1.23;;;11.60;99.90;;;;;;5091042;28;20165;-58
2022/11/02 07:22:36;;;;;;;11.35;1.75;;;11.60;99.90;;;;;;5089641;28;20036;-58
2022/11/02 07:25:02;;;;;;;10.18;1.35;;;11.80;99.90;;;;;;5089437;28;20089;-58
2022/11/02 07:27:27;;;;;;;5.95;1.00;;;12.30;99.90;;;;;;5091208;28;20521;-57
2022/11/02 07:29:53;;;;;;;7.93;1.40;;;12.80;99.90;;;;;;5091200;28;20040;-56
2022/11/02 07:32:18;;;;;;;9.93;1.87;;;13.20;99.90;;;;;;5091063;28;20040;-57
2022/11/02 07:34:44;;;;;;;10.33;2.73;;;13.40;99.90;;;;;;5095693;28;20278;-52
2022/11/02 07:37:09;;;;;;;14.75;1.77;;;13.60;99.90;;;;;;5091039;28;20040;-55
2022/11/02 07:39:35;;;;;;;13.63;1.60;;;13.80;99.90;;;;;;5104934;28;20039;-56
2022/11/02 07:42:01;;;;;;;12.07;1.83;;;14.20;99.90;;;;;;5109516;28;20047;-55
2022/11/02 07:44:26;;;;;;;9.65;1.10;;;14.20;99.90;;;;;;5109454;28;20305;-55
2022/11/02 07:46:52;;;;;;;16.30;1.80;;;14.10;99.90;;;;;;5101214;28;20039;-53
2022/11/02 07:49:17;;;;;;;11.17;1.30;;;13.70;99.90;;;;;;5096016;28;20649;-58
2022/11/02 07:51:43;;;;;;;9.20;1.50;;;13.60;99.90;;;;;;5090750;28;20560;-56
2022/11/02 07:54:08;;;;;;;6.60;1.47;;;13.50;99.90;;;;;;5090009;28;20119;-56
2022/11/02 07:56:34;;;;;;;16.40;1.83;;;13.40;99.90;;;;;;5099246;28;20278;-58
2022/11/02 07:58:59;;;;;;;9.48;1.00;;;13.40;99.90;;;;;;5090445;28;20040;-55
2022/11/02 08:01:25;;;;;;;12.53;1.97;;;13.30;99.90;;;;;;5093101;28;20039;-56
2022/11/02 08:03:50;;;;;;;7.13;1.42;;;13.30;99.90;;;;;;5108704;28;20100;-56
2022/11/02 08:06:16;;;;;;;8.55;1.27;;;13.20;99.90;;;;;;5098298;28;20059;-54
2022/11/02 08:08:42;;;;;;;9.77;0.97;;;13.30;99.90;;;;;;5110303;28;20499;-55
2022/11/02 08:11:08;;;;;;;7.22;1.33;;;13.20;99.90;;;;;;5101661;28;20112;-55
2022/11/02 08:13:36;;;;;;;10.05;1.08;;;13.00;99.90;;;;;;5108098;28;20067;-58
2022/11/02 08:16:01;;;;;;;8.30;1.05;;;12.90;99.90;;;;;;5100977;28;20046;-55
2022/11/02 08:18:28;;;;;;;7.57;1.58;;;12.80;99.90;;;;;;5110404;28;20035;-59
2022/11/02 08:20:58;;;;;;;11.85;1.13;;;12.70;99.90;;;;;;5108620;28;20083;-52
2022/11/02 08:23:24;;;;;;;10.45;1.05;;;12.70;99.90;;;;;;5109510;28;20407;-53
2022/11/02 08:25:52;;;;;;;7.63;1.20;;;12.80;99.90;;;;;;5108557;28;20548;-52
2022/11/02 08:28:23;;;;;;;8.52;0.90;;;12.80;99.90;;;;;;5109093;28;20050;-53
2022/11/02 08:30:49;;;;;;;13.52;1.05;;;12.90;99.90;;;;;;5099069;28;20401;-52
2022/11/02 08:33:17;;;;;;;6.90;0.90;;;12.90;99.90;;;;;;5089592;28;20032;-51
2022/11/02 08:35:44;;;;;;;13.27;0.88;;;12.80;99.90;;;;;;5093677;28;20074;-53
2022/11/02 08:38:10;;;;;;;10.70;1.15;;;12.70;99.90;;;;;;5094363;28;20105;-53
2022/11/02 08:40:36;;;;;;;10.52;1.20;;;12.70;99.90;;;;;;5102726;28;20117;-54
2022/11/02 08:43:04;;;;;;;8.98;0.82;;;12.70;99.90;;;;;;5105742;28;20036;-54
2022/11/02 08:45:31;;;;;;;11.60;1.10;;;12.70;99.90;;;;;;5101970;28;20031;-51
2022/11/02 08:47:57;;;;;;;10.32;0.98;;;12.90;99.90;;;;;;5097714;28;20050;-53
2022/11/02 08:50:24;;;;;;;4.15;0.70;;;13.30;99.90;;;;;;5093391;28;20036;-54
2022/11/02 08:52:49;;;;;;;9.80;0.77;;;13.50;99.90;;;;;;5089621;28;20032;-52
2022/11/02 08:55:15;;;;;;;10.10;0.90;;;13.80;99.90;;;;;;5093554;28;20546;-54
2022/11/02 08:57:49;;;;;;;9.55;1.13;;;14.10;99.90;;;;;;5094251;28;20501;-54
2022/11/02 09:00:16;;;;;;;6.05;0.55;;;14.30;99.90;;;;;;5086558;28;20393;-53
2022/11/02 09:02:42;;;;;;;8.80;1.10;;;14.50;99.90;;;;;;5093111;28;20128;-54
2022/11/02 09:05:09;;;;;;;8.05;0.88;;;14.60;99.90;;;;;;5093533;28;20040;-52
2022/11/02 09:07:35;;;;;;;9.70;1.23;;;14.50;99.90;;;;;;5093884;28;20036;-55
2022/11/02 09:10:01;;;;;;;10.23;1.08;;;14.60;99.90;;;;;;5093768;28;20042;-52
2022/11/02 09:12:26;;;;;;;10.85;1.20;;;14.50;99.90;;;;;;5093435;28;20404;-52
2022/11/02 09:14:52;;;;;;;7.40;0.60;;;14.60;99.90;;;;;;5093225;28;20043;-55
2022/11/02 09:17:17;;;;;;;10.52;1.25;;;14.50;99.90;;;;;;5093696;28;20040;-54
2022/11/02 09:19:43;;;;;;;11.05;0.98;;;14.60;99.90;;;;;;5110189;28;20507;-53
2022/11/02 09:22:08;;;;;;;7.97;0.73;;;14.50;99.90;;;;;;5096308;28;20051;-54
2022/11/02 09:24:34;;;;;;;7.05;0.95;;;14.50;99.90;;;;;;5069012;28;20358;-55
2022/11/02 09:26:59;;;;;;;10.52;0.93;;;14.60;99.90;;;;;;5075139;28;20135;-55
2022/11/02 09:29:25;;;;;;;10.95;1.10;;;14.70;99.90;;;;;;5076739;28;20033;-52
2022/11/02 09:31:50;;;;;;;8.25;0.85;;;14.80;99.90;;;;;;5072529;28;20116;-53
2022/11/02 09:34:16;;;;;;;7.07;0.43;;;14.90;99.90;;;;;;5069297;28;20076;-55
2022/11/02 09:36:41;;;;;;;5.90;0.75;;;15.00;99.90;;;;;;5075727;28;20374;-56
2022/11/02 09:39:07;;;;;;;11.00;1.88;;;15.10;99.90;;;;;;5067523;28;20040;-54
2022/11/02 09:41:47;;;;;;;4.80;0.95;;;15.20;99.90;;;;;;5075481;28;20028;-54
2022/11/02 09:44:17;;;;;;;8.32;1.05;;;15.20;99.90;;;;;;5068192;28;20059;-55
2022/11/02 09:46:45;;;;;;;9.30;0.77;;;15.10;99.90;;;;;;5072778;28;20055;-54
2022/11/02 09:49:15;;;;;;;17.15;1.52;;;15.00;99.90;;;;;;5075345;28;20042;-56
2022/11/02 09:51:47;;;;;;;5.80;0.60;;;15.00;99.90;;;;;;5076322;28;20086;-54
2022/11/02 09:54:38;;;;;;;11.10;1.25;;;15.10;99.90;;;;;;5074582;28;20051;-55
2022/11/02 09:57:26;;;;;;;7.13;1.02;;;15.20;99.90;;;;;;5075880;28;20520;-56
2022/11/02 09:59:52;;;;;;;10.13;0.80;;;15.40;99.90;;;;;;5071370;28;20078;-56
2022/11/02 10:02:17;;;;;;;7.28;0.50;;;15.60;99.90;;;;;;5074263;28;20044;-52
2022/11/02 10:05:18;;;;;;;8.60;0.73;;;15.80;99.90;;;;;;5073483;28;20040;-54
2022/11/02 10:08:13;;;;;;;10.75;1.20;;;15.80;99.90;;;;;;5083475;28;20040;-55
2022/11/02 10:10:45;;;;;;;8.48;0.50;;;15.90;99.90;;;;;;5073564;28;20405;-55
2022/11/02 10:13:34;;;;;;;10.48;0.90;;;16.00;99.90;;;;;;5076625;28;20055;-55
2022/11/02 10:16:03;;;;;;;6.43;0.80;;;16.00;99.90;;;;;;5068049;28;20040;-55
2022/11/02 10:18:30;;;;;;;9.45;1.02;;;16.00;99.90;;;;;;5079950;28;20032;-53
2022/11/02 10:20:59;;;;;;;6.63;0.73;;;16.00;99.90;;;;;;5077161;28;20028;-54
2022/11/02 10:23:32;;;;;;;6.65;0.90;;;15.90;99.90;;;;;;5071570;28;20075;-54
2022/11/02 10:25:59;;;;;;;6.50;1.20;;;15.80;99.60;;;;;;5072407;28;20037;-53
2022/11/02 10:28:29;;;;;;;6.15;0.70;;;15.70;99.70;;;;;;5074289;28;20115;-55
2022/11/02 10:30:55;;;;;;;5.97;0.73;;;15.60;99.70;;;;;;5074646;28;20127;-53
2022/11/02 10:33:27;;;;;;;15.13;1.05;;;15.60;99.90;;;;;;5082271;28;20468;-55
2022/11/02 10:36:06;;;;;;;6.20;1.13;;;15.70;99.90;;;;;;5085275;28;20063;-54
2022/11/02 10:39:02;;;;;;;9.32;1.65;;;15.70;99.80;;;;;;5081509;28;20052;-54
2022/11/02 10:41:55;;;;;;;5.15;0.75;;;15.60;99.50;;;;;;5092753;28;20048;-55
2022/11/02 10:44:27;;;;;;;7.45;1.00;;;15.60;99.90;;;;;;5086887;28;20039;-53
2022/11/02 10:47:10;;;;;;;11.55;0.77;;;15.60;99.70;;;;;;5093035;28;20538;-54
2022/11/02 10:49:57;;;;;;;12.57;1.35;;;15.40;99.60;;;;;;5091275;28;20031;-56
2022/11/02 10:52:24;;;;;;;5.60;1.13;;;15.20;99.60;;;;;;5090318;28;20024;-52
2022/11/02 10:54:50;;;;;;;5.93;0.80;;;15.10;99.40;;;;;;5087829;28;20500;-55
2022/11/02 10:57:22;;;;;;;8.57;1.48;;;15.10;98.80;;;;;;5085869;28;20229;-53
2022/11/02 11:00:26;;;;;;;10.07;0.90;;;15.00;98.70;;;;;;5088989;28;20050;-54
2022/11/02 11:03:09;;;;;;;5.10;0.68;;;14.90;98.80;;;;;;5085946;28;20137;-54
2022/11/02 11:05:51;;;;;;;5.25;0.60;;;15.00;98.80;;;;;;5088955;28;20515;-55
2022/11/02 11:08:30;;;;;;;6.28;0.63;;;15.00;98.60;;;;;;5088018;28;20313;-56
2022/11/02 11:11:17;;;;;;;9.18;0.98;;;15.30;98.80;;;;;;5091154;28;20088;-55
2022/11/02 11:13:56;;;;;;;15.77;0.70;;;15.30;98.00;;;;;;5089055;28;20373;-54
2022/11/02 11:16:35;;;;;;;8.63;0.95;;;15.30;98.40;;;;;;5089895;28;20044;-53
2022/11/02 11:19:01;;;;;;;8.32;0.85;;;15.60;98.60;;;;;;5087446;28;20443;-54
2022/11/02 11:21:38;;;;;;;6.82;1.02;;;15.70;98.30;;;;;;5086658;28;20113;-55
2022/11/02 11:24:22;;;;;;;7.95;0.85;;;15.60;97.60;;;;;;5084765;28;20044;-56
2022/11/02 11:27:10;;;;;;;11.00;0.90;;;15.70;97.80;;;;;;5087211;28;20366;-55
2022/11/02 11:29:45;;;;;;;4.97;0.57;;;15.70;97.90;;;;;;5086036;28;20035;-54
2022/11/02 11:32:17;;;;;;;5.25;0.90;;;15.80;98.30;;;;;;5086133;28;20520;-56
2022/11/02 11:34:49;;;;;;;5.85;0.55;;;15.90;97.90;;;;;;5087383;28;20077;-52
2022/11/02 11:37:16;;;;;;;4.70;0.57;;;15.90;97.80;;;;;;5077530;28;20577;-54
2022/11/02 11:39:44;;;;;;;7.38;1.90;;;16.00;98.00;;;;;;5086315;28;20061;-55
2022/11/02 11:42:17;;;;;;;7.88;0.60;;;16.20;98.50;;;;;;5088694;28;20126;-53
2022/11/02 11:45:04;;;;;;;11.05;1.00;;;16.20;97.60;;;;;;5084823;28;20066;-56
2022/11/02 11:47:35;;;;;;;9.88;1.40;;;16.30;97.90;;;;;;5083439;28;20036;-55
2022/11/02 11:50:04;;;;;;;10.30;0.80;;;16.50;97.30;;;;;;5085101;28;20035;-56
2022/11/02 11:52:32;;;;;;;8.10;1.17;;;16.60;97.40;;;;;;5088070;28;20291;-51
2022/11/02 11:55:19;;;;;;;9.63;1.15;;;16.70;96.70;;;;;;5091121;28;20092;-55
2022/11/02 11:57:45;;;;;;;;;;;16.80;96.80;;;;;;5091495;28;20074;-55
2022/11/02 12:00:31;;;;;;;5.68;0.50;;;16.90;96.00;;;;;;5088547;28;19951;-56
2022/11/02 12:03:09;;;;;;;9.43;1.10;;;17.10;97.00;;;;;;5084902;28;20050;-54
2022/11/02 12:05:57;;;;;;;7.57;0.70;;;17.10;95.70;;;;;;5085153;28;20044;-55
2022/11/02 12:08:46;;;;;;;7.85;1.17;;;17.00;96.00;;;;;;5081544;28;20177;-56
2022/11/02 12:11:22;;;;;;;8.77;0.68;;;17.00;95.80;;;;;;5086766;28;20122;-55
2022/11/02 12:14:02;;;;;;;8.63;0.95;;;17.10;95.70;;;;;;5067980;28;20065;-55
2022/11/02 12:16:46;;;;;;;8.60;1.52;;;17.10;95.10;;;;;;5087957;28;20040;-52
2022/11/02 12:19:22;;;;;;;14.32;1.40;;;16.90;94.70;;;;;;5079502;28;20737;-53
2022/11/02 12:22:09;;;;;;;9.40;0.70;;;17.00;95.30;;;;;;5080706;28;20515;-54
2022/11/02 12:24:49;;;;;;;5.20;1.03;;;17.10;94.70;;;;;;5081758;28;20044;-56
2022/11/02 12:27:46;;;;;;;3.83;0.73;;;16.90;94.70;;;;;;5080609;28;20127;-56
2022/11/02 12:30:14;;;;;;;10.50;0.98;;;16.90;94.70;;;;;;5080684;28;20142;-55
2022/11/02 12:32:48;;;;;;;8.65;0.75;;;16.80;94.80;;;;;;5084610;28;20416;-55
2022/11/02 12:35:36;;;;;;;3.33;0.90;;;16.80;94.50;;;;;;5083439;28;20462;-56
2022/11/02 12:38:39;;;;;;;7.18;1.25;;;16.80;94.90;;;;;;5079733;28;20031;-56
2022/11/02 12:41:11;;;;;;;6.05;1.15;;;17.10;95.10;;;;;;5079417;28;20032;-55
2022/11/02 12:43:46;;;;;;;6.78;0.50;;;17.10;94.70;;;;;;5080239;28;20059;-55
2022/11/02 12:46:14;;;;;;;6.20;0.57;;;17.00;94.20;;;;;;5079935;28;20082;-53
2022/11/02 12:49:06;;;;;;;5.97;0.57;;;16.90;94.10;;;;;;5083313;28;20032;-54
2022/11/02 12:51:43;;;;;;;8.00;0.80;;;16.70;94.20;;;;;;5082127;28;20544;-55
2022/11/02 12:54:09;;;;;;;;;;;16.60;93.80;;;;;;5059020;28;20344;-55
2022/11/02 12:56:43;;;;;;;8.83;0.87;;;16.60;93.50;;;;;;5077702;28;19953;-54
2022/11/02 12:59:16;;;;;;;4.35;0.50;;;16.60;93.50;;;;;;5079267;28;20161;-56
2022/11/02 13:01:45;;;;;;;8.95;0.60;;;16.60;93.90;;;;;;5080730;28;20083;-54
2022/11/02 13:04:26;;;;;;;6.95;0.73;;;16.70;93.70;;;;;;5079714;28;20063;-52
2022/11/02 13:07:02;;;;;;;4.22;0.70;;;16.70;93.60;;;;;;5074195;28;20043;-55
2022/11/02 13:09:35;;;;;;;8.00;0.60;;;16.60;93.60;;;;;;5088523;28;20043;-53
2022/11/02 13:12:13;;;;;;;4.30;0.65;;;16.60;94.10;;;;;;5095262;28;20492;-54
2022/11/02 13:14:45;;;;;;;7.07;0.73;;;16.40;94.10;;;;;;5109873;28;20143;-55
2022/11/02 13:17:18;;;;;;;5.32;0.70;;;16.20;94.10;;;;;;5098623;28;20165;-51